Time;durP1;ratioP1;P1;durP2;ratioP2;P2;SDS_P1;SDS_P2;PMS_P1;PMS_P2;Temp;Humidity;BMP_temperature;BMP_pressure;BME280_temperature;BME280_humidity;BME280_pressure;Samples;Min_cycle;Max_cycle;Signal;HPM_P1;HPM_P2
2022/04/01 00:00:01;;;;;;;5.87;1.83;;;-0.20;88.70;;;;;;5063400;28;20075;-71
2022/04/01 00:02:27;;;;;;;5.40;1.40;;;-0.20;88.50;;;;;;5024727;28;21822;-71
2022/04/01 00:04:53;;;;;;;4.28;1.10;;;-0.20;88.70;;;;;;5042768;28;20576;-71
2022/04/01 00:07:19;;;;;;;4.37;1.30;;;-0.20;88.50;;;;;;5022639;28;20036;-72
2022/04/01 00:09:45;;;;;;;3.20;1.23;;;-0.30;88.40;;;;;;5055934;28;20807;-72
2022/04/01 00:12:11;;;;;;;3.35;1.30;;;-0.30;88.30;;;;;;5047121;28;20049;-72
2022/04/01 00:14:37;;;;;;;3.33;1.20;;;-0.20;88.50;;;;;;5040058;28;20523;-71
2022/04/01 00:17:04;;;;;;;3.80;1.35;;;-0.20;88.40;;;;;;5038862;28;20113;-72
2022/04/01 00:19:30;;;;;;;5.22;1.55;;;-0.20;88.50;;;;;;5046462;28;20924;-72
2022/04/01 00:21:56;;;;;;;5.90;1.15;;;-0.30;88.30;;;;;;5040744;28;20051;-72
2022/04/01 00:24:22;;;;;;;4.00;1.33;;;-0.20;88.40;;;;;;5062605;28;20139;-72
2022/04/01 00:26:48;;;;;;;6.60;1.40;;;-0.30;88.20;;;;;;5032130;28;20489;-72
2022/04/01 00:29:15;;;;;;;4.55;1.05;;;-0.30;88.10;;;;;;5064474;28;20087;-72
2022/04/01 00:31:48;;;;;;;4.10;1.05;;;-0.20;88.10;;;;;;5064948;28;20039;-72
2022/04/01 00:34:15;;;;;;;3.50;0.95;;;-0.30;88.10;;;;;;5052463;28;20040;-72
2022/04/01 00:36:46;;;;;;;2.97;1.15;;;-0.30;88.10;;;;;;5030228;28;20559;-72
2022/04/01 00:39:13;;;;;;;3.80;1.08;;;-0.30;88.10;;;;;;5041548;28;20783;-72
2022/04/01 00:41:40;;;;;;;2.47;1.02;;;-0.30;88.10;;;;;;5053971;28;20041;-72
2022/04/01 00:44:20;;;;;;;4.45;1.85;;;-0.30;88.20;;;;;;5042822;28;20584;-72
2022/04/01 00:46:49;;;;;;;3.35;1.30;;;-0.30;88.20;;;;;;5067940;28;20043;-72
2022/04/01 00:49:16;;;;;;;4.28;1.20;;;-0.20;88.20;;;;;;5067994;28;20055;-72
2022/04/01 00:51:43;;;;;;;3.17;1.05;;;-0.30;88.10;;;;;;5060969;28;20046;-71
2022/04/01 00:54:10;;;;;;;4.40;1.35;;;-0.30;88.10;;;;;;5041664;28;20443;-71
2022/04/01 00:56:37;;;;;;;4.68;1.20;;;-0.20;88.10;;;;;;5047301;28;20428;-72
2022/04/01 00:59:04;;;;;;;4.03;0.90;;;-0.20;88.00;;;;;;5046831;28;20095;-72
2022/04/01 01:01:31;;;;;;;6.60;1.10;;;-0.20;88.00;;;;;;5043755;28;20124;-72
2022/04/01 01:04:00;;;;;;;4.88;1.25;;;-0.20;88.00;;;;;;5065101;28;20047;-72
2022/04/01 01:06:26;;;;;;;3.17;1.17;;;-0.20;87.90;;;;;;5038651;28;20050;-72
2022/04/01 01:08:54;;;;;;;3.17;1.27;;;-0.20;87.90;;;;;;5056426;28;20032;-72
2022/04/01 01:11:20;;;;;;;3.50;1.67;;;-0.20;87.90;;;;;;5033511;28;20036;-72
2022/04/01 01:13:46;;;;;;;2.97;0.90;;;-0.20;88.00;;;;;;5031777;28;20036;-72
2022/04/01 01:16:11;;;;;;;4.17;1.03;;;-0.20;87.90;;;;;;5046387;28;20063;-72
2022/04/01 01:18:37;;;;;;;3.13;1.00;;;-0.20;88.00;;;;;;5042690;28;20109;-72
2022/04/01 01:21:04;;;;;;;6.53;1.00;;;-0.20;87.90;;;;;;5056517;28;20048;-72
2022/04/01 01:23:30;;;;;;;4.45;0.90;;;-0.10;88.00;;;;;;5039614;28;20454;-72
2022/04/01 01:25:56;;;;;;;4.32;0.95;;;-0.10;88.00;;;;;;5062728;28;20381;-72
2022/04/01 01:28:23;;;;;;;2.85;0.90;;;-0.10;87.70;;;;;;5043161;28;20054;-72
2022/04/01 01:30:50;;;;;;;5.30;1.10;;;-0.10;87.50;;;;;;5063677;28;20041;-72
2022/04/01 01:33:20;;;;;;;3.58;1.00;;;-0.10;87.60;;;;;;5044078;28;20063;-72
2022/04/01 01:35:46;;;;;;;5.50;1.20;;;-0.10;87.40;;;;;;5061835;28;20043;-72
2022/04/01 01:38:11;;;;;;;2.90;0.95;;;-0.10;87.20;;;;;;5040796;28;20040;-72
2022/04/01 01:40:37;;;;;;;4.47;0.87;;;-0.10;87.00;;;;;;5033638;28;20045;-72
2022/04/01 01:43:03;;;;;;;1.95;0.95;;;-0.10;87.10;;;;;;5060055;28;20063;-72
2022/04/01 01:45:31;;;;;;;4.10;0.80;;;-0.10;86.90;;;;;;5035725;28;20059;-72
2022/04/01 01:47:57;;;;;;;5.95;1.10;;;-0.10;86.80;;;;;;5048057;28;20114;-72
2022/04/01 01:55:51;;;;;;;4.15;1.00;;;-0.10;86.80;;;;;;5042614;28;20047;-72
2022/04/01 01:58:18;;;;;;;3.40;1.00;;;0.00;86.80;;;;;;5046659;28;20052;-72
2022/04/01 02:00:45;;;;;;;3.17;0.95;;;0.00;86.80;;;;;;5030133;28;20051;-72
2022/04/01 02:03:12;;;;;;;5.72;1.40;;;0.00;86.50;;;;;;5065893;28;20446;-72
2022/04/01 02:05:38;;;;;;;4.38;1.00;;;0.00;86.10;;;;;;5066781;28;20108;-72
2022/04/01 02:08:05;;;;;;;7.60;1.40;;;0.00;86.00;;;;;;5033462;28;20771;-72
2022/04/01 02:10:32;;;;;;;3.05;0.90;;;0.10;86.30;;;;;;5051240;28;20070;-72
2022/04/01 02:12:58;;;;;;;3.70;1.20;;;0.10;86.30;;;;;;5049213;28;20047;-72
2022/04/01 02:15:24;;;;;;;5.18;1.75;;;0.00;85.70;;;;;;5055389;28;20040;-72
2022/04/01 02:17:50;;;;;;;5.50;1.15;;;0.10;85.50;;;;;;5048843;28;20050;-72
2022/04/01 02:20:16;;;;;;;3.10;1.00;;;0.00;85.20;;;;;;5030627;28;20110;-72
2022/04/01 02:22:43;;;;;;;5.85;1.05;;;0.10;85.20;;;;;;5053831;28;20032;-72
2022/04/01 02:25:11;;;;;;;4.32;1.50;;;0.10;85.40;;;;;;5065720;28;20044;-72
2022/04/01 02:27:37;;;;;;;6.18;1.00;;;0.10;84.80;;;;;;5061131;28;20507;-72
2022/04/01 02:30:10;;;;;;;6.93;1.45;;;0.10;84.90;;;;;;5061627;28;20032;-72
2022/04/01 02:32:42;;;;;;;4.07;1.30;;;0.10;84.70;;;;;;5052550;28;20036;-72
2022/04/01 02:35:09;;;;;;;2.35;1.00;;;0.10;84.90;;;;;;5025444;28;20044;-72
2022/04/01 02:37:35;;;;;;;7.22;1.33;;;0.10;84.50;;;;;;5064109;28;20500;-72
2022/04/01 02:40:03;;;;;;;7.78;1.65;;;0.10;84.70;;;;;;5033741;28;20750;-72
2022/04/01 02:42:29;;;;;;;3.47;1.00;;;0.10;84.60;;;;;;5050598;28;20040;-72
2022/04/01 02:44:55;;;;;;;5.37;0.90;;;0.20;84.50;;;;;;5060066;28;20036;-72
2022/04/01 02:47:21;;;;;;;3.88;0.90;;;0.20;84.10;;;;;;5059678;28;20461;-72
2022/04/01 02:49:47;;;;;;;3.67;0.80;;;0.30;83.90;;;;;;5053999;28;20131;-72
2022/04/01 02:52:13;;;;;;;4.60;1.05;;;0.30;83.90;;;;;;5035531;28;20349;-72
2022/04/01 02:54:39;;;;;;;6.47;1.13;;;0.30;83.50;;;;;;5049726;28;20485;-72
2022/04/01 02:57:05;;;;;;;3.80;1.20;;;0.30;83.30;;;;;;5062560;28;20047;-72
2022/04/01 02:59:31;;;;;;;6.43;1.33;;;0.30;83.80;;;;;;5060580;28;20048;-72
2022/04/01 03:01:56;;;;;;;4.00;1.30;;;0.40;83.60;;;;;;5046681;28;20037;-72
2022/04/01 03:04:22;;;;;;;5.43;1.33;;;0.40;82.60;;;;;;5064073;28;20040;-72
2022/04/01 03:06:49;;;;;;;4.03;1.23;;;0.40;82.40;;;;;;5049683;28;20794;-72
2022/04/01 03:09:15;;;;;;;3.05;1.10;;;0.30;82.40;;;;;;5065843;28;20067;-72
2022/04/01 03:11:42;;;;;;;6.78;1.20;;;0.30;82.40;;;;;;5033252;28;20071;-71
2022/04/01 03:14:10;;;;;;;8.27;1.08;;;0.40;82.90;;;;;;5044360;28;20489;-72
2022/04/01 03:16:37;;;;;;;3.67;0.90;;;0.40;82.90;;;;;;5043671;28;20118;-72
2022/04/01 03:19:04;;;;;;;6.45;1.52;;;0.40;82.50;;;;;;5065746;28;20777;-72
2022/04/01 03:21:30;;;;;;;3.53;1.23;;;0.50;82.30;;;;;;5061092;28;20044;-72
2022/04/01 03:23:56;;;;;;;3.03;1.53;;;0.50;81.40;;;;;;5032130;28;20048;-72
2022/04/01 03:26:23;;;;;;;4.85;1.08;;;0.50;81.40;;;;;;5042816;28;20049;-71
2022/04/01 03:28:49;;;;;;;3.03;0.90;;;0.40;81.10;;;;;;5053661;28;20555;-71
2022/04/01 03:31:15;;;;;;;3.25;1.05;;;0.40;81.30;;;;;;5041164;28;20037;-72
2022/04/01 03:33:41;;;;;;;7.03;0.82;;;0.40;81.90;;;;;;5037611;28;20037;-72
2022/04/01 03:36:08;;;;;;;4.65;1.42;;;0.40;81.10;;;;;;5045603;28;20037;-72
2022/04/01 03:38:35;;;;;;;3.80;1.65;;;0.50;80.80;;;;;;5056662;28;20047;-72
2022/04/01 03:41:02;;;;;;;4.30;1.10;;;0.50;80.90;;;;;;5059629;28;20052;-71
2022/04/01 03:43:28;;;;;;;6.05;0.98;;;0.50;80.50;;;;;;5063860;28;20567;-71
2022/04/01 03:45:58;;;;;;;5.43;0.83;;;0.50;80.50;;;;;;5054285;28;20032;-71
2022/04/01 03:48:48;;;;;;;5.05;1.10;;;0.50;80.60;;;;;;5040041;28;20408;-72
2022/04/01 03:51:19;;;;;;;5.00;0.90;;;0.50;79.90;;;;;;5044977;28;20044;-72
2022/04/01 03:54:03;;;;;;;3.75;0.90;;;0.50;80.40;;;;;;5033928;28;20068;-72
2022/04/01 03:56:35;;;;;;;3.10;0.90;;;0.50;80.20;;;;;;5051099;28;20041;-71
2022/04/01 03:59:06;;;;;;;6.90;1.20;;;0.50;79.20;;;;;;5058270;28;20534;-71
2022/04/01 04:01:34;;;;;;;2.50;0.80;;;0.50;79.60;;;;;;5047403;28;20044;-71
2022/04/01 04:04:01;;;;;;;3.65;1.30;;;0.50;80.10;;;;;;5044982;28;20411;-71
2022/04/01 04:06:27;;;;;;;3.08;0.80;;;0.60;80.00;;;;;;5045610;28;20040;-71
2022/04/01 04:08:57;;;;;;;4.50;0.60;;;0.60;79.90;;;;;;5060625;28;20584;-72
2022/04/01 04:11:24;;;;;;;5.55;0.90;;;0.60;79.20;;;;;;5028256;28;20036;-72
2022/04/01 04:13:52;;;;;;;4.47;1.00;;;0.60;79.30;;;;;;5036181;28;20032;-71
2022/04/01 04:16:29;;;;;;;3.53;1.17;;;0.60;79.30;;;;;;5056404;28;20127;-71
2022/04/01 04:19:07;;;;;;;2.00;0.70;;;0.60;78.60;;;;;;5032729;28;20042;-71
2022/04/01 04:21:58;;;;;;;4.00;0.80;;;0.60;79.30;;;;;;5066739;28;20050;-72
2022/04/01 04:24:29;;;;;;;3.83;1.15;;;0.60;79.00;;;;;;5044970;28;20040;-72
2022/04/01 04:27:12;;;;;;;6.43;1.35;;;0.70;79.00;;;;;;5032617;28;20047;-72
2022/04/01 04:29:49;;;;;;;4.63;0.95;;;0.70;78.70;;;;;;5062687;28;20044;-72
2022/04/01 04:32:38;;;;;;;3.80;1.00;;;0.80;78.30;;;;;;5047024;28;20416;-71
2022/04/01 04:35:07;;;;;;;3.72;1.10;;;0.70;78.30;;;;;;5039512;28;20079;-71
2022/04/01 04:37:44;;;;;;;3.28;0.90;;;0.70;77.60;;;;;;5060708;28;20059;-72
2022/04/01 04:40:12;;;;;;;4.35;0.98;;;0.80;78.20;;;;;;5057298;28;20036;-71
2022/04/01 04:42:44;;;;;;;4.40;0.77;;;0.80;77.60;;;;;;5057459;28;20039;-72
2022/04/01 04:45:12;;;;;;;9.05;1.70;;;0.80;77.30;;;;;;5060888;28;20035;-72
2022/04/01 04:47:41;;;;;;;7.00;1.10;;;0.80;77.10;;;;;;5059466;28;20053;-71
2022/04/01 04:50:08;;;;;;;5.40;1.25;;;0.90;76.90;;;;;;5028964;28;20040;-71
2022/04/01 04:52:34;;;;;;;7.65;1.45;;;0.90;76.50;;;;;;5065722;28;20836;-71
2022/04/01 04:55:02;;;;;;;6.00;1.00;;;0.90;76.00;;;;;;5062011;28;20044;-72
2022/04/01 04:57:28;;;;;;;4.10;1.10;;;0.90;76.40;;;;;;5043086;28;20043;-71
2022/04/01 04:59:58;;;;;;;4.38;1.20;;;0.90;77.00;;;;;;5048503;28;20501;-71
2022/04/01 05:02:55;;;;;;;5.80;1.00;;;0.90;77.10;;;;;;5058136;28;20113;-71
2022/04/01 05:05:33;;;;;;;9.50;1.80;;;0.90;77.30;;;;;;5038400;28;20043;-72
2022/04/01 05:08:10;;;;;;;3.08;0.75;;;0.90;76.90;;;;;;5062872;28;20037;-72
2022/04/01 05:10:53;;;;;;;7.80;1.02;;;0.90;77.20;;;;;;5060006;28;20040;-72
2022/04/01 05:13:35;;;;;;;4.45;1.00;;;0.90;77.10;;;;;;5070109;28;20044;-72
2022/04/01 05:16:06;;;;;;;3.97;1.10;;;0.90;76.30;;;;;;5064102;28;20071;-71
2022/04/01 05:19:01;;;;;;;3.80;1.00;;;0.90;76.50;;;;;;5051970;28;20056;-71
2022/04/01 05:21:37;;;;;;;4.75;0.73;;;0.90;76.70;;;;;;5061825;28;20075;-71
2022/04/01 05:24:07;;;;;;;4.97;1.33;;;0.90;76.30;;;;;;5034384;28;20036;-71
2022/04/01 05:26:45;;;;;;;3.78;0.88;;;1.00;76.40;;;;;;5034599;28;20079;-71
2022/04/01 05:29:25;;;;;;;4.60;0.90;;;0.90;76.20;;;;;;5038319;28;20032;-71
2022/04/01 05:32:13;;;;;;;4.80;0.98;;;0.90;76.20;;;;;;5041922;28;20115;-71
2022/04/01 05:34:49;;;;;;;4.32;1.10;;;1.00;76.60;;;;;;5037713;28;20043;-70
2022/04/01 05:37:16;;;;;;;4.50;1.05;;;1.00;76.40;;;;;;5060064;28;20071;-70
2022/04/01 05:39:47;;;;;;;4.53;0.90;;;1.00;76.20;;;;;;5055705;28;20036;-70
2022/04/01 05:42:14;;;;;;;3.72;0.98;;;1.00;76.40;;;;;;5067350;28;20110;-70
2022/04/01 05:44:42;;;;;;;4.28;1.20;;;1.00;77.10;;;;;;5043148;28;20126;-70
2022/04/01 05:47:08;;;;;;;2.85;1.05;;;1.00;77.10;;;;;;5050732;28;20054;-70
2022/04/01 05:49:40;;;;;;;8.27;1.15;;;1.00;76.60;;;;;;5047711;28;20041;-70
2022/04/01 05:52:09;;;;;;;6.75;1.35;;;1.00;76.80;;;;;;5065767;28;20045;-70
2022/04/01 05:54:35;;;;;;;6.88;0.98;;;1.10;76.90;;;;;;5068408;28;20051;-70
2022/04/01 05:57:03;;;;;;;3.10;1.13;;;1.10;75.70;;;;;;5068979;28;20375;-70
2022/04/01 05:59:29;;;;;;;5.88;1.27;;;1.10;76.00;;;;;;5068181;28;20100;-70
2022/04/01 06:02:04;;;;;;;5.53;1.10;;;1.10;76.30;;;;;;5061400;28;20508;-70
2022/04/01 06:04:54;;;;;;;5.60;0.85;;;1.10;76.40;;;;;;5062026;28;20094;-70
2022/04/01 06:07:55;;;;;;;6.15;1.40;;;1.10;76.60;;;;;;5049610;28;20055;-70
2022/04/01 06:10:36;;;;;;;5.90;1.23;;;1.10;77.00;;;;;;5064005;28;20401;-70
2022/04/01 06:13:14;;;;;;;6.35;0.90;;;1.10;77.00;;;;;;5063959;28;20091;-70
2022/04/01 06:16:23;;;;;;;4.32;1.05;;;1.20;76.20;;;;;;5062218;28;20048;-70
2022/04/01 06:19:04;;;;;;;2.63;0.85;;;1.20;76.90;;;;;;5042655;28;20060;-70
2022/04/01 06:21:36;;;;;;;3.67;1.65;;;1.20;76.80;;;;;;5045346;28;20047;-70
2022/04/01 06:24:24;;;;;;;4.78;1.35;;;1.20;76.60;;;;;;5041453;28;20504;-70
2022/04/01 06:27:00;;;;;;;5.80;1.20;;;1.20;77.00;;;;;;5066511;28;20450;-70
2022/04/01 06:29:41;;;;;;;3.17;0.63;;;1.20;76.40;;;;;;5066797;28;20465;-70
2022/04/01 06:32:13;;;;;;;4.22;0.95;;;1.40;75.90;;;;;;5068000;28;20032;-70
2022/04/01 06:34:54;;;;;;;3.33;1.30;;;1.40;75.00;;;;;;5067289;28;20047;-70
2022/04/01 06:37:32;;;;;;;2.88;0.70;;;1.50;75.80;;;;;;5053934;28;20097;-70
2022/04/01 06:40:12;;;;;;;2.92;0.88;;;1.50;75.80;;;;;;5033305;28;20179;-70
2022/04/01 06:42:39;;;;;;;4.32;1.17;;;1.50;75.40;;;;;;5027890;28;20047;-70
2022/04/01 06:45:10;;;;;;;7.47;1.10;;;1.50;75.50;;;;;;5055204;28;20082;-70
2022/04/01 06:47:36;;;;;;;3.60;0.90;;;1.60;75.90;;;;;;5046474;28;20067;-70
2022/04/01 06:50:03;;;;;;;3.42;0.95;;;1.60;75.10;;;;;;5068354;28;20504;-70
2022/04/01 06:52:29;;;;;;;5.82;1.10;;;1.70;74.50;;;;;;5050930;28;20040;-70
2022/04/01 06:54:56;;;;;;;5.85;1.20;;;1.70;74.30;;;;;;5054174;28;20115;-70
2022/04/01 06:57:22;;;;;;;6.28;1.00;;;1.80;74.40;;;;;;5051102;28;20347;-70
2022/04/01 06:59:49;;;;;;;4.53;1.38;;;1.80;74.40;;;;;;5062178;28;20369;-70
2022/04/01 07:02:14;;;;;;;4.03;1.17;;;1.80;74.20;;;;;;5023225;28;20040;-70
2022/04/01 07:04:40;;;;;;;4.10;1.57;;;1.80;74.30;;;;;;5063309;28;20042;-70
2022/04/01 07:07:06;;;;;;;6.97;1.77;;;1.80;74.20;;;;;;5054031;28;20374;-70
2022/04/01 07:09:32;;;;;;;4.40;1.30;;;1.90;74.60;;;;;;5029540;28;20043;-70
2022/04/01 07:12:01;;;;;;;5.23;1.20;;;2.00;74.60;;;;;;5041871;28;20468;-70
2022/04/01 07:14:27;;;;;;;5.05;1.35;;;2.00;73.40;;;;;;5004220;28;20341;-70
2022/04/01 07:16:56;;;;;;;4.82;1.15;;;2.00;74.10;;;;;;5064012;28;20438;-72
2022/04/01 07:19:22;;;;;;;3.75;1.35;;;2.10;73.80;;;;;;5035154;28;20040;-70
2022/04/01 07:21:48;;;;;;;4.80;1.07;;;2.10;72.80;;;;;;5040618;28;20047;-70
2022/04/01 07:24:14;;;;;;;3.80;1.20;;;2.20;73.20;;;;;;5038178;28;20048;-70
2022/04/01 07:26:41;;;;;;;5.30;1.67;;;2.30;72.80;;;;;;5046251;28;20117;-70
2022/04/01 07:29:07;;;;;;;2.80;1.00;;;2.30;73.40;;;;;;5037316;28;20303;-70
2022/04/01 07:34:39;;;;;;;3.58;0.90;;;2.50;72.50;;;;;;5065543;28;20126;-70
2022/04/01 07:37:05;;;;;;;3.05;1.00;;;2.50;71.70;;;;;;5040538;28;20131;-70
2022/04/01 07:39:32;;;;;;;5.13;1.93;;;2.60;72.30;;;;;;5032997;28;20564;-70
2022/04/01 07:41:58;;;;;;;3.58;1.00;;;2.70;71.00;;;;;;5040079;28;20301;-70
2022/04/01 07:44:24;;;;;;;5.53;1.20;;;2.70;71.70;;;;;;5040505;28;20166;-70
2022/04/01 07:46:51;;;;;;;5.90;1.07;;;2.80;71.90;;;;;;5067159;28;20412;-70
2022/04/01 07:49:17;;;;;;;4.20;1.10;;;2.90;72.20;;;;;;5047908;28;20082;-70
2022/04/01 07:51:44;;;;;;;3.80;1.10;;;3.00;71.60;;;;;;5070235;28;20040;-70
2022/04/01 07:54:11;;;;;;;5.38;1.05;;;3.00;71.40;;;;;;5047201;28;20476;-70
2022/04/01 07:56:40;;;;;;;8.68;1.50;;;3.10;70.80;;;;;;5047001;28;20040;-70
2022/04/01 07:59:10;;;;;;;4.75;1.20;;;3.10;70.70;;;;;;5036787;28;20044;-70
2022/04/01 08:01:36;;;;;;;5.65;1.10;;;3.20;69.90;;;;;;5036109;28;20123;-70
2022/04/01 08:04:03;;;;;;;6.38;1.00;;;3.30;69.80;;;;;;5063766;28;20040;-70
2022/04/01 08:06:30;;;;;;;4.88;1.27;;;3.30;70.90;;;;;;5053459;28;20244;-70
2022/04/01 08:08:58;;;;;;;6.32;1.48;;;3.40;70.80;;;;;;5046548;28;20036;-70
2022/04/01 08:11:24;;;;;;;6.03;1.52;;;3.40;70.40;;;;;;5064960;28;20498;-70
2022/04/01 08:13:50;;;;;;;3.75;1.20;;;3.50;70.40;;;;;;5061642;28;20093;-70
2022/04/01 08:16:16;;;;;;;3.60;0.80;;;3.60;69.90;;;;;;5028236;28;20120;-70
2022/04/01 08:18:42;;;;;;;4.83;0.90;;;3.70;70.30;;;;;;5051714;28;20054;-70
2022/04/01 08:21:07;;;;;;;5.23;1.07;;;3.80;70.30;;;;;;5044824;28;20079;-70
2022/04/01 08:23:35;;;;;;;4.63;1.10;;;3.90;69.70;;;;;;5052015;28;20141;-70
2022/04/01 08:26:05;;;;;;;3.38;1.10;;;3.90;68.60;;;;;;5068817;28;20055;-70
2022/04/01 08:28:30;;;;;;;4.13;1.00;;;4.00;69.30;;;;;;5049842;28;20048;-70
2022/04/01 08:30:56;;;;;;;3.07;0.80;;;4.00;69.00;;;;;;5039104;28;20489;-71
2022/04/01 08:33:22;;;;;;;4.05;1.20;;;4.00;67.40;;;;;;5051582;28;20391;-71
2022/04/01 08:35:48;;;;;;;4.30;1.10;;;4.00;68.80;;;;;;5050922;28;20043;-71
2022/04/01 08:38:14;;;;;;;3.57;1.00;;;4.10;69.10;;;;;;5064730;28;20048;-71
2022/04/01 08:40:40;;;;;;;3.83;1.10;;;4.10;69.10;;;;;;5059806;28;20047;-71
2022/04/01 08:43:06;;;;;;;2.22;1.00;;;4.10;70.50;;;;;;5057725;28;20330;-71
2022/04/01 08:45:34;;;;;;;2.90;1.03;;;4.10;69.90;;;;;;5055094;28;20133;-72
2022/04/01 08:48:00;;;;;;;4.00;1.02;;;4.00;70.90;;;;;;5037591;28;20055;-72
2022/04/01 08:50:26;;;;;;;5.32;1.00;;;4.00;70.90;;;;;;5052998;28;20046;-72
2022/04/01 08:52:52;;;;;;;4.60;1.08;;;4.00;70.90;;;;;;5055068;28;20467;-72
2022/04/01 08:55:19;;;;;;;3.50;1.30;;;3.90;70.30;;;;;;5051408;28;20112;-72
2022/04/01 08:57:45;;;;;;;3.72;1.00;;;3.90;70.60;;;;;;5015791;28;20040;-72
2022/04/01 09:00:13;;;;;;;3.10;0.80;;;3.90;71.20;;;;;;5063047;28;20401;-72
2022/04/01 09:02:40;;;;;;;6.38;0.82;;;3.80;71.20;;;;;;5053007;28;20044;-72
2022/04/01 09:05:07;;;;;;;2.25;0.52;;;3.80;71.00;;;;;;5066246;28;20043;-72
2022/04/01 09:07:33;;;;;;;1.60;0.70;;;3.80;71.20;;;;;;5050896;28;20040;-72
2022/04/01 09:10:06;;;;;;;3.13;1.03;;;3.80;70.50;;;;;;5066099;28;20043;-72
2022/04/01 09:12:32;;;;;;;5.05;1.10;;;3.80;70.40;;;;;;5068757;28;20040;-72
2022/04/01 09:14:59;;;;;;;5.80;0.90;;;3.80;71.20;;;;;;5047477;28;20087;-72
2022/04/01 09:17:41;;;;;;;2.88;1.00;;;3.80;70.60;;;;;;5041402;28;20051;-72
2022/04/01 09:20:07;;;;;;;4.40;0.80;;;3.70;69.60;;;;;;5042343;28;20052;-72
2022/04/01 09:22:34;;;;;;;2.97;1.08;;;3.70;71.00;;;;;;5059363;28;20044;-73
2022/04/01 09:25:05;;;;;;;1.95;0.90;;;3.80;71.70;;;;;;5056747;28;20512;-73
2022/04/01 09:27:51;;;;;;;2.33;0.90;;;3.90;71.30;;;;;;5069732;28;20040;-73
2022/04/01 09:30:29;;;;;;;1.98;0.80;;;4.00;71.30;;;;;;5066154;28;20059;-72
2022/04/01 09:32:58;;;;;;;3.45;0.98;;;4.10;71.80;;;;;;5049988;28;20040;-72
2022/04/01 09:35:26;;;;;;;4.05;0.80;;;4.30;71.50;;;;;;5046396;28;20068;-72
2022/04/01 09:37:55;;;;;;;3.00;1.00;;;4.40;70.90;;;;;;5053349;28;20044;-73
2022/04/01 09:40:22;;;;;;;2.53;0.88;;;4.50;71.60;;;;;;5069609;28;20100;-73
2022/04/01 09:42:50;;;;;;;3.35;1.30;;;4.60;69.30;;;;;;5058495;28;20044;-73
2022/04/01 09:45:18;;;;;;;4.13;1.05;;;4.70;69.20;;;;;;5059026;28;20405;-73
2022/04/01 09:47:45;;;;;;;3.03;0.70;;;4.70;68.50;;;;;;5058818;28;20052;-73
2022/04/01 09:50:17;;;;;;;1.38;0.68;;;4.70;68.70;;;;;;5054832;28;20098;-73
2022/04/01 09:52:45;;;;;;;4.38;0.70;;;4.70;67.40;;;;;;5060015;28;20090;-72
2022/04/01 09:55:11;;;;;;;3.03;0.90;;;4.70;66.40;;;;;;5043546;28;20115;-73
2022/04/01 09:57:37;;;;;;;1.90;0.80;;;4.80;69.70;;;;;;5019591;28;20036;-73
2022/04/01 10:00:05;;;;;;;4.70;1.10;;;4.90;69.60;;;;;;5030457;28;20105;-73
2022/04/01 10:02:31;;;;;;;1.77;0.80;;;5.00;66.10;;;;;;5035693;28;20701;-73
2022/04/01 10:04:58;;;;;;;3.93;0.90;;;5.10;67.60;;;;;;5049126;28;20151;-73
2022/04/01 10:07:26;;;;;;;2.92;0.90;;;5.20;66.00;;;;;;5029302;28;20048;-73
2022/04/01 10:09:55;;;;;;;2.55;0.75;;;5.30;67.00;;;;;;5039348;28;20071;-73
2022/04/01 10:12:25;;;;;;;3.20;0.80;;;5.20;65.30;;;;;;5043907;28;20047;-73
2022/04/01 10:14:56;;;;;;;2.97;0.80;;;5.20;66.60;;;;;;5056377;28;20050;-72
2022/04/01 10:17:22;;;;;;;2.38;0.75;;;5.20;65.70;;;;;;5052188;28;20044;-73
2022/04/01 10:19:49;;;;;;;4.27;0.80;;;5.10;66.60;;;;;;5057475;28;20036;-73
2022/04/01 10:22:16;;;;;;;3.03;1.10;;;5.00;63.60;;;;;;5046648;28;20385;-73
2022/04/01 10:24:54;;;;;;;1.85;0.68;;;4.90;63.70;;;;;;5020587;28;20047;-73
2022/04/01 10:27:42;;;;;;;4.22;1.05;;;4.90;65.80;;;;;;5056195;28;20052;-72
2022/04/01 10:30:09;;;;;;;2.75;0.70;;;4.90;65.60;;;;;;5048795;28;20440;-72
2022/04/01 10:32:35;;;;;;;4.13;0.93;;;5.00;66.90;;;;;;5039482;28;20040;-72
2022/04/01 10:35:03;;;;;;;4.23;0.80;;;5.10;65.70;;;;;;5059535;28;20067;-72
2022/04/01 10:37:31;;;;;;;2.13;0.77;;;5.20;63.80;;;;;;5064669;28;20051;-72
2022/04/01 10:40:20;;;;;;;2.92;0.80;;;5.30;63.40;;;;;;5054937;28;20599;-72
2022/04/01 10:42:47;;;;;;;2.25;0.88;;;5.40;62.20;;;;;;5061446;28;20501;-72
2022/04/01 10:45:16;;;;;;;1.20;0.50;;;5.50;62.10;;;;;;5055316;28;20580;-72
2022/04/01 10:53:41;;;;;;;2.25;0.93;;;5.60;61.30;;;;;;5057764;28;20540;-72
2022/04/01 10:56:24;;;;;;;3.15;0.98;;;5.70;62.10;;;;;;5055399;28;20527;-72
2022/04/01 10:59:17;;;;;;;7.60;1.55;;;5.80;61.40;;;;;;5058757;28;20131;-72
2022/04/01 11:02:03;;;;;;;4.88;1.00;;;5.90;61.30;;;;;;5048219;28;20052;-72
2022/04/01 11:04:32;;;;;;;5.55;1.17;;;5.90;64.10;;;;;;5065841;28;20047;-72
2022/04/01 11:07:02;;;;;;;1.33;0.65;;;5.90;61.40;;;;;;5056997;28;20360;-72
2022/04/01 11:09:49;;;;;;;3.38;1.10;;;5.80;60.40;;;;;;5043196;28;20052;-72
2022/04/01 11:12:14;;;;;;;2.92;1.13;;;5.70;61.40;;;;;;5045107;28;20075;-72
2022/04/01 11:17:41;;;;;;;1.65;0.63;;;5.70;60.80;;;;;;5058357;28;20044;-72
2022/04/01 11:20:12;;;;;;;3.92;0.80;;;5.70;60.20;;;;;;5038212;28;20162;-72
2022/04/01 11:22:45;;;;;;;1.88;0.63;;;5.70;61.20;;;;;;5058115;28;20040;-72
2022/04/01 11:25:35;;;;;;;2.92;0.95;;;5.80;62.30;;;;;;5041708;28;20047;-72
2022/04/01 11:28:06;;;;;;;2.20;0.55;;;5.90;61.90;;;;;;5046650;28;20067;-72
2022/04/01 11:31:06;;;;;;;1.40;0.50;;;6.00;60.40;;;;;;5042370;28;20073;-72
2022/04/01 11:33:32;;;;;;;2.40;0.63;;;6.00;58.90;;;;;;5032912;28;20053;-72
2022/04/01 11:35:58;;;;;;;3.53;0.85;;;6.00;57.80;;;;;;5037819;28;20125;-72
2022/04/01 11:38:27;;;;;;;4.37;0.80;;;6.00;60.30;;;;;;5046963;28;20052;-72
2022/04/01 11:40:56;;;;;;;3.58;0.60;;;6.00;57.20;;;;;;5051726;28;20064;-72
2022/04/01 11:43:23;;;;;;;6.13;1.13;;;6.00;58.20;;;;;;5044106;28;20740;-72
2022/04/01 11:46:06;;;;;;;2.67;0.50;;;5.90;57.20;;;;;;5038541;28;20048;-73
2022/04/01 11:48:37;;;;;;;2.88;0.60;;;5.90;58.40;;;;;;5044583;28;20045;-72
2022/04/01 11:51:11;;;;;;;2.13;0.88;;;5.90;59.80;;;;;;5062449;28;20037;-72
2022/04/01 11:53:43;;;;;;;4.85;0.80;;;6.00;59.00;;;;;;5035306;28;20049;-71
2022/04/01 11:56:11;;;;;;;3.42;1.02;;;6.10;57.60;;;;;;5039326;28;20044;-72
2022/04/01 11:58:53;;;;;;;3.33;0.73;;;6.10;59.90;;;;;;5035601;28;20055;-72
2022/04/01 12:01:20;;;;;;;4.10;0.73;;;6.10;59.00;;;;;;5035709;28;20397;-72
2022/04/01 12:03:46;;;;;;;3.80;1.10;;;6.20;59.50;;;;;;5057650;28;20114;-72
2022/04/01 12:09:05;;;;;;;9.13;1.00;;;6.10;59.80;;;;;;5051595;28;20067;-72
2022/04/01 12:11:39;;;;;;;2.33;0.70;;;6.00;59.40;;;;;;5052285;28;20381;-71
2022/04/01 12:14:05;;;;;;;3.05;0.55;;;5.80;59.50;;;;;;5039682;28;20043;-71
2022/04/01 12:16:30;;;;;;;4.00;0.53;;;5.80;60.60;;;;;;5034833;28;20037;-72
2022/04/01 12:18:57;;;;;;;2.23;0.57;;;5.70;59.20;;;;;;5031171;28;20126;-71
2022/04/01 12:21:24;;;;;;;2.13;0.90;;;5.50;58.40;;;;;;5035385;28;20541;-71
2022/04/01 12:23:51;;;;;;;5.15;1.00;;;5.40;56.80;;;;;;5032562;28;20045;-72
2022/04/01 12:26:20;;;;;;;2.25;0.80;;;5.50;59.20;;;;;;5015080;28;20124;-72
2022/04/01 12:28:49;;;;;;;3.20;0.80;;;5.60;59.00;;;;;;5052616;28;20052;-71
2022/04/01 12:31:22;;;;;;;4.63;0.90;;;5.60;58.80;;;;;;5042235;28;20064;-71
2022/04/01 12:33:51;;;;;;;2.00;0.80;;;5.70;59.30;;;;;;5039283;28;20041;-71
2022/04/01 12:36:32;;;;;;;2.50;0.90;;;5.60;59.40;;;;;;5057643;28;20041;-71
2022/04/01 12:39:05;;;;;;;6.22;1.27;;;5.50;61.10;;;;;;5043229;28;20050;-71
2022/04/01 12:41:31;;;;;;;3.50;1.27;;;5.30;61.70;;;;;;5059924;28;20080;-71
2022/04/01 12:43:59;;;;;;;3.55;0.90;;;5.20;62.10;;;;;;5038360;28;20098;-71
2022/04/01 12:46:30;;;;;;;2.22;1.13;;;5.20;61.70;;;;;;5024677;28;20044;-71
2022/04/01 12:48:59;;;;;;;3.22;0.75;;;5.30;62.30;;;;;;5055027;28;20502;-71
2022/04/01 12:51:33;;;;;;;2.92;1.05;;;5.40;60.70;;;;;;5056358;28;20533;-72
2022/04/01 12:54:03;;;;;;;7.32;1.15;;;5.50;60.80;;;;;;5057680;28;20075;-71
2022/04/01 12:56:34;;;;;;;2.55;1.00;;;5.50;61.30;;;;;;5055250;28;20041;-71
2022/04/01 12:59:10;;;;;;;4.03;1.10;;;5.70;61.50;;;;;;5057165;28;20083;-72
2022/04/01 13:01:38;;;;;;;3.10;1.02;;;5.90;61.00;;;;;;5057057;28;20052;-72
2022/04/01 13:04:06;;;;;;;4.80;1.25;;;6.10;61.40;;;;;;5061304;28;20127;-71
2022/04/01 13:06:32;;;;;;;2.65;1.02;;;6.00;60.40;;;;;;5062402;28;20496;-71
2022/04/01 13:09:10;;;;;;;4.27;1.40;;;6.00;58.60;;;;;;5059787;28;20075;-72
2022/04/01 13:11:46;;;;;;;3.33;0.90;;;6.00;59.90;;;;;;5060090;28;20044;-71
2022/04/01 13:14:21;;;;;;;4.82;1.10;;;6.10;59.50;;;;;;5037829;28;20371;-72
2022/04/01 13:16:47;;;;;;;5.50;1.10;;;6.20;59.60;;;;;;5060930;28;20501;-71
2022/04/01 13:19:30;;;;;;;3.47;1.38;;;6.20;58.80;;;;;;5055536;28;20140;-71
2022/04/01 13:22:07;;;;;;;3.97;1.17;;;6.20;56.80;;;;;;5035090;28;20408;-72
2022/04/01 13:24:41;;;;;;;3.28;1.30;;;6.10;59.20;;;;;;5054108;28;20044;-72
2022/04/01 13:27:11;;;;;;;5.18;1.10;;;6.10;58.40;;;;;;5046819;28;20064;-72
2022/04/01 13:29:38;;;;;;;6.03;1.00;;;6.10;59.10;;;;;;5025634;28;20570;-71